Wheatland, Missouri
Current Conditions -  °F | °C
As of 5:55 PM on Sunday 23 Nov 2014 (Local Time) from KGLY Reporting Station
Haze Haze  
Wind Chill: 55°   Ceiling: 400
Heat Index: 55°   Visibility: 3mi
Dew Point: 55°   Wind: 0mph
Humidity: 100%   Direction: NA
Pressure: 29.31"   Gusts: NA
Location:  37.95°N, 93.4°W
Report Text: KGLY 232355Z AUTO 00000KT 3SM BR OVC004 13/13 A2931 RMK AO2
Loading
Personal Weather Stations






























Interactive Weather Map New forecast layout! Learn more

10-Day Weather Forecast

Advertisements
Track Severe Weather on mobile